Aérodrome :
LOGIN :

S'inscrire | Disclaimer

   EN    FR    IT 

 










Légende :    VFR   VFR Marginal   IFR   IFR Intensif   IFR Très Intensif
Visi : 
Plafond : 
>= 8 km
>= 3000ft
5 à 8 km
1000 à 3000 ft
1500m à 5 km
500 à 1000 ft
800 à 1500m
200 à 500 ft
< 800m
< 200 ft
Symboles :   Orages  Brouillard  Fortes neiges  Fortes précipitations  Vent > 20 kt
SIGMETs :   Divers  Orages  Givrage  Turbulence  Onde Orograph.  Cendres Volcan.







- Altitude de l'aérodrome : 1649 ft
- Code IATA : HHN


EDFH - Frankfurt-Hahn Rhineland-Palatinate

DERNIER METAR :
  • 240620Z 28004KT 240V300 CAVOK 12/09 Q1022

METARs EXPIRÉS :
  • 240550Z 29003KT CAVOK 12/09 Q1022
  • 240520Z 26003KT 220V290 CAVOK 11/09 Q1022
  • 240450Z 25003KT CAVOK 10/09 Q1022
  • 240420Z VRB02KT CAVOK 10/08 Q1022
  • 240350Z 26002KT CAVOK 10/08 Q1022

TAF TAF EDFH
Valide du 24 à 06h jusqu'au 25 à 06h UTC


240500Z 2406/2506 25004KT 9999 FEW040
BECMG 2407/2409 34006KT
BECMG 2422/2424 BKN010
TEMPO 2502/2506 BKN007
Pas de NOTAMs connus pour ce terrain.



MET'MAP, la Météo Aéronautique d'un coup d'oeil ! - Copyright ORBIFLY Décembre 2007 - Disclaimer

ORBIFLY MET'MAP TEAM :

Programmation & Développement : Alexandra Zaïnal
Conception & Développement : Baudouin d'Aumeries
Co-Programmation & Développement : Marc-Olivier Méhu
Soutien technique & logistique : Manuel Goepfert

Contact : metmap@orbifly.com




SOURCES & CREDITS :

   NOAA